createdAt,value
2023-01-17T00:02:11.009Z,98296.28
2023-01-17T00:04:56.799Z,98303.53
2023-01-17T00:07:44.688Z,98304.66
2023-01-17T00:10:15.353Z,98311.56
2023-01-17T00:12:49.495Z,98297.44
2023-01-17T00:15:19.926Z,98318.13
2023-01-17T00:17:50.342Z,98315.84
2023-01-17T00:20:40.138Z,98306.69
2023-01-17T00:23:26.964Z,98316.25
2023-01-17T00:26:04.888Z,98311.34
2023-01-17T00:28:34.748Z,98322.03
2023-01-17T00:31:02.771Z,98338.06
2023-01-17T00:33:31.768Z,98336.16
2023-01-17T00:35:59.852Z,98341.16
2023-01-17T00:38:28.952Z,98354.53
2023-01-17T00:41:01.721Z,98359.84
2023-01-17T00:43:48.707Z,98373.84
2023-01-17T00:46:34.656Z,98368.47
2023-01-17T00:49:22.459Z,98384.47
2023-01-17T00:52:08.355Z,98386.69
2023-01-17T00:54:54.226Z,98392.72
2023-01-17T00:57:40.016Z,98403.38
2023-01-17T01:00:27.257Z,98397.94
2023-01-17T01:03:12.900Z,98413.94
2023-01-17T01:06:00.239Z,98417.75
2023-01-17T01:08:48.516Z,98417.00
2023-01-17T01:11:37.486Z,98407.06
2023-01-17T01:14:28.918Z,98429.22
2023-01-17T01:17:14.539Z,98420.06
2023-01-17T01:20:00.261Z,98428.47
2023-01-17T01:22:47.505Z,98430.75
2023-01-17T01:25:33.870Z,98439.91
2023-01-17T01:28:24.750Z,98438.38
2023-01-17T01:31:10.619Z,98457.09
2023-01-17T01:33:38.904Z,98448.25
2023-01-17T01:36:10.227Z,98463.56
2023-01-17T01:38:40.929Z,98472.72
2023-01-17T01:41:09.369Z,98476.53
2023-01-17T01:43:48.282Z,98483.78
2023-01-17T01:46:22.350Z,98486.44
2023-01-17T01:48:57.086Z,98494.09
2023-01-17T01:51:29.659Z,98507.47
2023-01-17T01:54:03.602Z,98502.84
2023-01-17T01:56:33.047Z,98515.34
2023-01-17T01:59:05.894Z,98519.84
2023-01-17T02:01:34.690Z,98520.94
2023-01-17T02:04:04.446Z,98514.38
2023-01-17T02:06:36.793Z,98521.59
2023-01-17T02:09:11.273Z,98526.53
2023-01-17T02:11:41.752Z,98526.13
2023-01-17T02:14:16.128Z,98531.81
2023-01-17T02:16:58.817Z,98536.38
2023-01-17T02:20:05.756Z,98541.72
2023-01-17T02:23:36.492Z,98543.13
2023-01-17T02:26:46.546Z,98546.94
2023-01-17T02:29:59.499Z,98550.72
2023-01-17T02:32:43.574Z,98543.41
2023-01-17T02:35:21.963Z,98555.66
2023-01-17T02:38:00.060Z,98558.31
2023-01-17T02:40:33.521Z,98560.28
2023-01-17T02:43:06.024Z,98560.28
2023-01-17T02:45:34.569Z,98565.63
2023-01-17T02:48:05.115Z,98562.25
2023-01-17T02:50:48.293Z,98575.59
2023-01-17T02:53:33.803Z,98584.03
2023-01-17T02:56:14.606Z,98585.88
2023-01-17T02:59:08.422Z,98598.38
2023-01-17T03:01:49.995Z,98596.75
2023-01-17T03:04:24.344Z,98595.56
2023-01-17T03:06:57.283Z,98602.47
2023-01-17T03:09:27.901Z,98605.50
2023-01-17T03:11:56.330Z,98614.63
2023-01-17T03:14:24.576Z,98608.09
2023-01-17T03:16:53.045Z,98611.53
2023-01-17T03:19:22.670Z,98611.47
2023-01-17T03:21:51.098Z,98614.50
2023-01-17T03:24:19.528Z,98617.09
2023-01-17T03:26:48.007Z,98618.91
2023-01-17T03:29:16.804Z,98618.50
2023-01-17T03:31:45.193Z,98626.06
2023-01-17T03:34:13.602Z,98628.75
2023-01-17T03:36:43.404Z,98621.88
2023-01-17T03:39:11.728Z,98629.88
2023-01-17T03:41:40.114Z,98632.09
2023-01-17T03:44:08.311Z,98630.16
2023-01-17T03:46:36.770Z,98622.41
2023-01-17T03:49:05.335Z,98617.34
2023-01-17T03:51:33.804Z,98610.81
2023-01-17T03:54:03.718Z,98608.50
2023-01-17T03:56:32.133Z,98608.06
2023-01-17T03:59:01.024Z,98619.09
2023-01-17T04:01:30.051Z,98618.31
2023-01-17T04:03:58.779Z,98608.31
2023-01-17T04:06:28.421Z,98616.34
2023-01-17T04:08:56.965Z,98624.78
2023-01-17T04:11:26.859Z,98630.13
2023-01-17T04:13:55.526Z,98617.91
2023-01-17T04:16:30.748Z,98618.66
2023-01-17T04:18:59.096Z,98627.00
2023-01-17T04:21:27.454Z,98628.13
2023-01-17T04:23:55.787Z,98628.41
2023-01-17T04:26:24.050Z,98630.38
2023-01-17T04:28:54.276Z,98630.03
2023-01-17T04:31:22.579Z,98627.72
2023-01-17T04:33:50.816Z,98631.09
2023-01-17T04:36:19.255Z,98628.75
2023-01-17T04:38:48.839Z,98623.34
2023-01-17T04:41:17.135Z,98619.91
2023-01-17T04:43:45.629Z,98620.22
2023-01-17T04:46:15.429Z,98617.53
2023-01-17T04:48:43.668Z,98619.41
2023-01-17T04:51:11.840Z,98620.97
2023-01-17T04:53:40.934Z,98618.66
2023-01-17T04:56:09.512Z,98623.22
2023-01-17T04:58:37.794Z,98618.97
2023-01-17T05:01:26.630Z,98612.09
2023-01-17T05:03:58.205Z,98617.41
2023-01-17T05:06:26.978Z,98623.13
2023-01-17T05:08:55.995Z,98612.34
2023-01-17T05:11:27.811Z,98611.16
2023-01-17T05:13:56.464Z,98615.28
2023-01-17T05:16:40.602Z,98616.75
2023-01-17T05:19:10.157Z,98626.22
2023-01-17T05:21:38.923Z,98642.91
2023-01-17T05:24:08.265Z,98656.22
2023-01-17T05:26:36.499Z,98647.47
2023-01-17T05:29:04.735Z,98659.34
2023-01-17T05:31:33.116Z,98667.78
2023-01-17T05:34:01.276Z,98657.53
2023-01-17T05:36:31.225Z,98674.66
2023-01-17T05:38:59.431Z,98663.22
2023-01-17T05:41:27.790Z,98674.66
2023-01-17T05:43:56.028Z,98676.19
2023-01-17T05:46:24.715Z,98689.22
2023-01-17T05:48:52.961Z,98689.97
2023-01-17T05:51:21.170Z,98683.06
2023-01-17T05:53:50.744Z,98676.19
2023-01-17T05:56:18.988Z,98676.91
2023-01-17T05:58:47.578Z,98686.78
2023-01-17T06:01:15.797Z,98681.34
2023-01-17T06:03:44.083Z,98685.84
2023-01-17T06:06:12.287Z,98683.06
2023-01-17T06:08:40.873Z,98687.25
2023-01-17T06:11:10.527Z,98694.78
2023-01-17T06:13:39.889Z,98691.69
2023-01-17T06:16:09.236Z,98692.03
2023-01-17T06:18:37.603Z,98694.97
2023-01-17T06:21:06.089Z,98703.31
2023-01-17T06:23:34.629Z,98696.75
2023-01-17T06:26:05.567Z,98698.97
2023-01-17T06:28:35.189Z,98697.44
2023-01-17T06:31:08.610Z,98693.53
2023-01-17T06:33:37.102Z,98699.56
2023-01-17T06:36:06.492Z,98696.03
2023-01-17T06:38:34.735Z,98697.84
2023-01-17T06:41:06.439Z,98694.28
2023-01-17T06:43:36.168Z,98704.84
2023-01-17T06:46:04.486Z,98711.63
2023-01-17T06:48:33.089Z,98708.09
2023-01-17T06:51:01.294Z,98706.03
2023-01-17T06:53:29.535Z,98704.81
2023-01-17T06:55:58.491Z,98707.06
2023-01-17T06:58:26.679Z,98703.16
2023-01-17T07:00:56.502Z,98698.53
2023-01-17T07:03:29.579Z,98700.41
2023-01-17T07:05:57.781Z,98707.19
2023-01-17T07:08:26.073Z,98703.72
2023-01-17T07:11:00.369Z,98711.31
2023-01-17T07:13:29.537Z,98699.41
2023-01-17T07:16:02.218Z,98703.53
2023-01-17T07:18:30.993Z,98713.00
2023-01-17T07:20:59.370Z,98707.97
2023-01-17T07:23:28.278Z,98711.97
2023-01-17T07:25:58.592Z,98713.44
2023-01-17T07:28:29.070Z,98709.22
2023-01-17T07:30:58.756Z,98716.88
2023-01-17T07:33:27.060Z,98711.88
2023-01-17T07:35:55.216Z,98707.56
2023-01-17T07:38:23.467Z,98715.22
2023-01-17T07:40:51.716Z,98712.88
2023-01-17T07:43:19.930Z,98713.22
2023-01-17T07:45:50.774Z,98720.44
2023-01-17T07:48:21.866Z,98716.56
2023-01-17T07:50:54.127Z,98713.56
2023-01-17T07:58:12.764Z,98716.50
2023-01-17T08:00:42.334Z,98722.16
2023-01-17T08:03:15.164Z,98711.81
2023-01-17T08:05:57.833Z,98707.72
2023-01-17T08:08:26.203Z,98711.59
2023-01-17T08:10:54.478Z,98715.47
2023-01-17T08:13:22.967Z,98720.88
2023-01-17T08:15:51.899Z,98715.22
2023-01-17T08:18:20.404Z,98722.88
2023-01-17T08:20:48.664Z,98727.19
2023-01-17T08:23:18.396Z,98727.72
2023-01-17T08:25:46.737Z,98737.38
2023-01-17T08:28:15.978Z,98739.06
2023-01-17T08:30:44.616Z,98733.50
2023-01-17T08:33:13.076Z,98739.69
2023-01-17T08:35:41.463Z,98736.78
2023-01-17T08:38:10.662Z,98737.00
2023-01-17T08:40:40.257Z,98735.63
2023-01-17T08:43:09.317Z,98738.91
2023-01-17T08:45:37.609Z,98744.19
2023-01-17T08:48:06.426Z,98737.63
2023-01-17T08:50:35.283Z,98737.53
2023-01-17T08:53:03.539Z,98746.25
2023-01-17T08:55:33.295Z,98746.59
2023-01-17T08:58:02.962Z,98749.53
2023-01-17T09:00:32.612Z,98755.81
2023-01-17T09:03:01.349Z,98757.88
2023-01-17T09:05:29.873Z,98756.59
2023-01-17T09:07:58.353Z,98759.84
2023-01-17T09:10:27.202Z,98758.47
2023-01-17T09:12:55.518Z,98757.75
2023-01-17T09:15:25.931Z,98755.28
2023-01-17T09:17:57.201Z,98758.84
2023-01-17T09:20:30.117Z,98758.91
2023-01-17T09:22:58.549Z,98755.91
2023-01-17T09:25:26.898Z,98765.38
2023-01-17T09:27:55.236Z,98759.38
2023-01-17T09:30:25.297Z,98754.63
2023-01-17T09:32:54.575Z,98757.16
2023-01-17T09:35:22.881Z,98753.84
2023-01-17T09:37:51.491Z,98753.22
2023-01-17T09:40:24.442Z,98763.69
2023-01-17T09:42:58.097Z,98771.91
2023-01-17T09:45:31.836Z,98778.63
2023-01-17T09:48:01.958Z,98781.81
2023-01-17T09:50:35.267Z,98776.53
2023-01-17T09:53:08.643Z,98784.25
2023-01-17T09:55:49.742Z,98776.72
2023-01-17T09:58:21.594Z,98790.22
2023-01-17T10:01:03.575Z,98788.03
2023-01-17T10:03:44.936Z,98792.78
2023-01-17T10:06:25.159Z,98793.75
2023-01-17T10:09:21.254Z,98790.81
2023-01-17T10:12:05.860Z,98791.28
2023-01-17T10:15:07.186Z,98795.13
2023-01-17T10:17:44.236Z,98793.97
2023-01-17T10:20:34.055Z,98792.16
2023-01-17T10:23:25.279Z,98797.72
2023-01-17T10:25:57.690Z,98797.44
2023-01-17T10:28:34.067Z,98800.59
2023-01-17T10:31:07.148Z,98788.94
2023-01-17T10:33:45.424Z,98793.28
2023-01-17T10:36:20.848Z,98793.28
2023-01-17T10:38:53.380Z,98793.28
2023-01-17T10:41:29.461Z,98783.03
2023-01-17T10:44:06.907Z,98785.16
2023-01-17T10:46:40.839Z,98788.84
2023-01-17T10:49:18.805Z,98784.00
2023-01-17T10:52:14.461Z,98784.97
2023-01-17T10:54:59.129Z,98779.81
2023-01-17T10:57:29.291Z,98780.16
2023-01-17T11:00:01.859Z,98778.69
2023-01-17T11:02:35.430Z,98774.19
2023-01-17T11:05:20.450Z,98774.59
2023-01-17T11:08:00.185Z,98765.00
2023-01-17T11:10:43.111Z,98758.50
2023-01-17T11:13:26.659Z,98752.31
2023-01-17T11:15:59.056Z,98750.06
2023-01-17T11:18:30.559Z,98752.78
2023-01-17T11:21:13.244Z,98748.59
2023-01-17T11:23:44.522Z,98757.44
2023-01-17T11:26:23.891Z,98755.59
2023-01-17T11:28:53.112Z,98751.78
2023-01-17T11:31:29.200Z,98760.28
2023-01-17T11:34:17.858Z,98755.28
2023-01-17T11:36:48.554Z,98755.66
2023-01-17T11:39:28.455Z,98753.66
2023-01-17T11:41:57.041Z,98754.03
2023-01-17T11:44:28.898Z,98746.81
2023-01-17T11:47:19.200Z,98754.13
2023-01-17T11:49:49.943Z,98755.69
2023-01-17T11:52:34.402Z,98748.81
2023-01-17T11:55:02.704Z,98748.47
2023-01-17T11:57:34.455Z,98755.13
2023-01-17T12:00:19.375Z,98753.63
2023-01-17T12:03:13.584Z,98742.09
2023-01-17T12:05:54.453Z,98737.91
2023-01-17T12:08:46.608Z,98737.53
2023-01-17T12:11:22.142Z,98731.38
2023-01-17T12:14:01.422Z,98732.16
2023-01-17T12:16:59.704Z,98730.63
2023-01-17T12:19:50.800Z,98729.06
2023-01-17T12:22:47.157Z,98731.75
2023-01-17T12:25:30.099Z,98729.03
2023-01-17T12:28:12.664Z,98729.81
2023-01-17T12:30:59.818Z,98722.84
2023-01-17T12:33:40.494Z,98724.38
2023-01-17T12:36:17.622Z,98727.06
2023-01-17T12:38:48.715Z,98715.50
2023-01-17T12:41:23.465Z,98719.00
2023-01-17T12:43:57.300Z,98742.03
2023-01-17T12:46:30.404Z,98729.69
2023-01-17T12:49:04.919Z,98726.19
2023-01-17T12:51:38.697Z,98726.53
2023-01-17T12:54:17.224Z,98719.56
2023-01-17T12:56:53.891Z,98725.72
2023-01-17T12:59:33.489Z,98723.41
2023-01-17T13:02:15.335Z,98718.03
2023-01-17T13:04:58.555Z,98717.25
2023-01-17T13:07:38.857Z,98721.88
2023-01-17T13:10:27.630Z,98714.19
2023-01-17T13:13:05.033Z,98716.13
2023-01-17T13:15:38.935Z,98719.53
2023-01-17T13:18:15.443Z,98711.03
2023-01-17T13:21:06.108Z,98720.28
2023-01-17T13:23:51.167Z,98720.25
2023-01-17T13:26:27.912Z,98719.06
2023-01-17T13:29:06.357Z,98717.16
2023-01-17T13:31:47.965Z,98719.44
2023-01-17T13:34:57.539Z,98717.91
2023-01-17T13:38:03.603Z,98709.81
2023-01-17T13:40:37.847Z,98710.59
2023-01-17T13:43:14.061Z,98720.56
2023-01-17T13:45:54.301Z,98725.50
2023-01-17T13:48:29.606Z,98727.81
2023-01-17T13:50:59.888Z,98723.97
2023-01-17T13:53:59.176Z,98723.94
2023-01-17T13:56:34.806Z,98733.47
2023-01-17T13:59:29.377Z,98740.75
2023-01-17T14:01:59.174Z,98736.09
2023-01-17T14:05:15.520Z,98727.56
2023-01-17T14:07:49.279Z,98721.38
2023-01-17T14:10:32.029Z,98725.91
2023-01-17T14:13:01.097Z,98719.78
2023-01-17T14:15:32.182Z,98727.78
2023-01-17T14:18:03.206Z,98721.25
2023-01-17T14:21:05.849Z,98724.25
2023-01-17T14:24:03.920Z,98726.88
2023-01-17T14:26:49.780Z,98726.81
2023-01-17T14:29:50.947Z,98739.03
2023-01-17T14:32:22.105Z,98736.66
2023-01-17T14:34:52.760Z,98732.38
2023-01-17T14:37:31.910Z,98744.22
2023-01-17T14:40:01.663Z,98747.63
2023-01-17T14:42:32.323Z,98738.34
2023-01-17T14:45:04.996Z,98736.78
2023-01-17T14:47:36.253Z,98742.09
2023-01-17T14:50:21.781Z,98744.72
2023-01-17T14:53:08.436Z,98738.91
2023-01-17T14:55:37.130Z,98741.88
2023-01-17T14:58:05.579Z,98743.38
2023-01-17T15:00:39.983Z,98738.31
2023-01-17T15:03:13.090Z,98748.19
2023-01-17T15:05:46.318Z,98745.06
2023-01-17T15:08:17.607Z,98751.47
2023-01-17T15:10:51.604Z,98743.00
2023-01-17T15:13:38.822Z,98738.38
2023-01-17T15:16:23.340Z,98752.09
2023-01-17T15:18:52.670Z,98744.03
2023-01-17T15:21:25.344Z,98745.13
2023-01-17T15:23:56.588Z,98747.72
2023-01-17T15:26:27.633Z,98753.81
2023-01-17T15:29:03.344Z,98759.84
2023-01-17T15:31:42.405Z,98759.09
2023-01-17T15:34:22.773Z,98765.59
2023-01-17T15:36:53.306Z,98763.63
2023-01-17T15:39:25.327Z,98765.09
2023-01-17T15:41:54.928Z,98760.91
2023-01-17T15:44:47.602Z,98761.63
2023-01-17T15:47:33.448Z,98763.47
2023-01-17T15:50:03.664Z,98764.88
2023-01-17T15:52:33.593Z,98778.16
2023-01-17T15:55:14.317Z,98783.75
2023-01-17T15:57:47.955Z,98784.81
2023-01-17T16:00:22.447Z,98776.31
2023-01-17T16:02:55.454Z,98774.66
2023-01-17T16:05:43.563Z,98779.91
2023-01-17T16:08:33.237Z,98781.31
2023-01-17T16:11:06.140Z,98787.41
2023-01-17T16:13:38.538Z,98774.22
2023-01-17T16:16:20.613Z,98774.09
2023-01-17T16:18:58.767Z,98785.44
2023-01-17T16:21:29.028Z,98786.78
2023-01-17T16:23:59.687Z,98787.00
2023-01-17T16:26:29.132Z,98791.00
2023-01-17T16:28:57.663Z,98793.06
2023-01-17T16:31:26.082Z,98782.25
2023-01-17T16:33:54.451Z,98784.75
2023-01-17T16:36:23.051Z,98789.53
2023-01-17T16:38:53.246Z,98796.94
2023-01-17T16:41:23.033Z,98790.66
2023-01-17T16:44:03.436Z,98794.72
2023-01-17T16:46:32.280Z,98799.13
2023-01-17T16:49:02.166Z,98789.41
2023-01-17T16:51:30.541Z,98788.44
2023-01-17T16:53:59.522Z,98792.47
2023-01-17T16:56:29.343Z,98794.97
2023-01-17T16:58:57.682Z,98801.66
2023-01-17T17:01:26.090Z,98799.72
2023-01-17T17:03:54.460Z,98806.78
2023-01-17T17:06:22.925Z,98798.47
2023-01-17T17:08:51.294Z,98803.44
2023-01-17T17:11:21.899Z,98807.03
2023-01-17T17:13:52.591Z,98801.50
2023-01-17T17:16:23.865Z,98814.63
2023-01-17T17:18:57.312Z,98813.75
2023-01-17T17:21:26.345Z,98818.97
2023-01-17T17:23:56.989Z,98821.09
2023-01-17T17:26:27.515Z,98830.09
2023-01-17T17:28:57.200Z,98824.72
2023-01-17T17:31:25.999Z,98826.13
2023-01-17T17:33:54.579Z,98832.28
2023-01-17T17:36:22.896Z,98836.47
2023-01-17T17:38:54.304Z,98834.59
2023-01-17T17:41:25.313Z,98835.72
2023-01-17T17:43:53.711Z,98845.25
2023-01-17T17:46:25.098Z,98836.78
2023-01-17T17:48:53.464Z,98844.00
2023-01-17T17:51:30.756Z,98850.47
2023-01-17T17:54:01.987Z,98857.69
2023-01-17T17:56:32.495Z,98861.03
2023-01-17T17:59:02.246Z,98864.00
2023-01-17T18:01:32.391Z,98854.03
2023-01-17T18:04:04.192Z,98856.25
2023-01-17T18:06:32.654Z,98865.34
2023-01-17T18:09:01.091Z,98862.91
2023-01-17T18:11:30.619Z,98869.69
2023-01-17T18:14:03.054Z,98870.69
2023-01-17T18:16:36.344Z,98880.88
2023-01-17T18:19:06.581Z,98875.13
2023-01-17T18:21:36.884Z,98874.22
2023-01-17T18:24:08.297Z,98877.56
2023-01-17T18:26:38.899Z,98873.22
2023-01-17T18:29:09.720Z,98888.00
2023-01-17T18:31:39.455Z,98890.09
2023-01-17T18:34:11.765Z,98887.31
2023-01-17T18:36:40.421Z,98893.66
2023-01-17T18:39:14.758Z,98901.19
2023-01-17T18:41:43.577Z,98894.19
2023-01-17T18:44:12.604Z,98893.28
2023-01-17T18:46:43.254Z,98898.50
2023-01-17T18:49:14.837Z,98900.56
2023-01-17T18:51:46.635Z,98900.75
2023-01-17T18:54:15.256Z,98902.72
2023-01-17T18:56:43.683Z,98909.81
2023-01-17T18:59:14.073Z,98910.00
2023-01-17T19:01:44.530Z,98913.44
2023-01-17T19:04:15.748Z,98907.97
2023-01-17T19:06:46.547Z,98915.19
2023-01-17T19:09:16.845Z,98913.63
2023-01-17T19:11:46.272Z,98915.84
2023-01-17T19:14:15.807Z,98914.16
2023-01-17T19:16:45.738Z,98920.13
2023-01-17T19:19:16.952Z,98917.78
2023-01-17T19:21:45.763Z,98923.75
2023-01-17T19:24:14.662Z,98923.38
2023-01-17T19:26:43.233Z,98927.53
2023-01-17T19:29:12.835Z,98937.13
2023-01-17T19:31:43.658Z,98934.97
2023-01-17T19:34:15.970Z,98938.41
2023-01-17T19:36:44.543Z,98942.94
2023-01-17T19:39:13.195Z,98934.53
2023-01-17T19:41:44.619Z,98933.75
2023-01-17T19:44:15.614Z,98938.28
2023-01-17T19:46:46.087Z,98943.59
2023-01-17T19:49:19.743Z,98955.78
2023-01-17T19:51:49.564Z,98953.56
2023-01-17T19:54:18.296Z,98947.16
2023-01-17T19:56:46.649Z,98957.16
2023-01-17T19:59:33.872Z,98959.81
2023-01-17T20:02:22.767Z,98957.94
2023-01-17T20:05:12.869Z,98953.25
2023-01-17T20:08:02.159Z,98956.13
2023-01-17T20:10:50.828Z,98960.44
2023-01-17T20:13:19.181Z,98956.59
2023-01-17T20:15:48.743Z,98962.53
2023-01-17T20:18:17.068Z,98965.66
2023-01-17T20:20:56.951Z,98972.97
2023-01-17T20:23:25.850Z,98976.56
2023-01-17T20:26:00.637Z,98975.91
2023-01-17T20:28:29.931Z,98979.50
2023-01-17T20:30:58.689Z,98976.19
2023-01-17T20:33:28.364Z,98976.66
2023-01-17T20:36:10.207Z,98981.06
2023-01-17T20:38:44.816Z,98983.75
2023-01-17T20:41:16.027Z,98982.53
2023-01-17T20:43:46.249Z,98994.72
2023-01-17T20:46:15.888Z,98995.16
2023-01-17T20:48:49.154Z,98991.94
2023-01-17T20:51:20.578Z,98997.03
2023-01-17T20:53:54.262Z,98998.31
2023-01-17T20:56:22.742Z,98990.78
2023-01-17T20:58:53.196Z,98992.34
2023-01-17T21:01:23.353Z,98988.13
2023-01-17T21:03:53.169Z,98998.44
2023-01-17T21:06:26.086Z,99000.00
2023-01-17T21:08:54.599Z,99006.88
2023-01-17T21:11:27.561Z,99010.00
2023-01-17T21:13:57.360Z,99026.25
2023-01-17T21:16:28.435Z,99026.72
2023-01-17T21:18:57.640Z,99016.41
2023-01-17T21:21:30.047Z,99023.28
2023-01-17T21:24:00.589Z,99011.41
2023-01-17T21:26:30.599Z,99003.13
2023-01-17T21:29:01.982Z,99007.00
2023-01-17T21:31:34.839Z,98999.38
2023-01-17T21:34:06.027Z,99003.56
2023-01-17T21:36:39.943Z,99005.31
2023-01-17T21:39:15.599Z,98998.75
2023-01-17T21:41:46.781Z,99007.81
2023-01-17T21:44:20.289Z,99008.16
2023-01-17T21:46:49.036Z,99015.00
2023-01-17T21:49:17.406Z,99010.47
2023-01-17T21:52:05.151Z,99020.00
2023-01-17T21:54:51.002Z,99019.22
2023-01-17T21:57:39.041Z,99016.56
2023-01-17T22:00:09.933Z,99017.34
2023-01-17T22:02:38.220Z,99008.28
2023-01-17T22:05:08.338Z,99025.78
2023-01-17T22:07:39.474Z,99026.56
2023-01-17T22:10:09.158Z,99027.97
2023-01-17T22:12:37.541Z,99029.06
2023-01-17T22:15:07.674Z,99027.19
2023-01-17T22:17:38.357Z,99027.19
2023-01-17T22:20:11.528Z,99026.41
2023-01-17T22:22:41.189Z,99034.38
2023-01-17T22:25:10.194Z,99041.56
2023-01-17T22:27:38.450Z,99043.78
2023-01-17T22:30:12.939Z,99038.31
2023-01-17T22:32:41.327Z,99049.38
2023-01-17T22:35:10.678Z,99049.88
2023-01-17T22:37:41.331Z,99049.41
2023-01-17T22:40:12.542Z,99047.38
2023-01-17T22:42:41.009Z,99056.59
2023-01-17T22:45:10.668Z,99047.53
2023-01-17T22:47:39.442Z,99050.66
2023-01-17T22:50:09.122Z,99046.44
2023-01-17T22:52:37.648Z,99055.19
2023-01-17T22:55:08.761Z,99055.94
2023-01-17T22:57:36.892Z,99049.09
2023-01-17T23:00:14.615Z,99050.19
2023-01-17T23:02:43.657Z,99051.28
2023-01-17T23:05:12.304Z,99048.16
2023-01-17T23:07:44.057Z,99048.16
2023-01-17T23:10:37.186Z,99042.06
2023-01-17T23:13:05.901Z,99045.03
2023-01-17T23:15:56.343Z,99044.09
2023-01-17T23:18:42.003Z,99050.19
2023-01-17T23:21:10.327Z,99045.19
2023-01-17T23:23:38.591Z,99052.38
2023-01-17T23:26:08.449Z,99045.06
2023-01-17T23:28:35.874Z,99050.66
2023-01-17T23:31:06.386Z,99055.97
2023-01-17T23:33:34.772Z,99050.19
2023-01-17T23:36:03.086Z,99049.25
2023-01-17T23:38:33.732Z,99050.34
2023-01-17T23:41:21.925Z,99056.75
2023-01-17T23:43:56.239Z,99052.56
2023-01-17T23:46:26.553Z,99052.25
2023-01-17T23:48:55.280Z,99048.97
2023-01-17T23:51:23.649Z,99050.53
2023-01-17T23:53:57.304Z,99046.94
2023-01-17T23:56:26.054Z,99051.28
2023-01-17T23:58:55.708Z,99050.22
